createdAt,value
2018-05-17T00:00:33.373Z,45.57
2018-05-17T00:03:01.349Z,36.07
2018-05-17T00:05:29.084Z,36.13
2018-05-17T00:07:57.239Z,32.30
2018-05-17T00:10:25.399Z,36.70
2018-05-17T00:12:57.493Z,33.40
2018-05-17T00:15:27.390Z,33.37
2018-05-17T00:17:58.529Z,28.60
2018-05-17T00:20:29.175Z,36.67
2018-05-17T00:22:56.900Z,32.40
2018-05-17T00:25:24.613Z,26.23
2018-05-17T00:27:52.389Z,26.57
2018-05-17T00:30:20.130Z,32.37
2018-05-17T00:32:49.741Z,31.20
2018-05-17T00:35:18.850Z,28.60
2018-05-17T00:37:46.713Z,31.23
2018-05-17T00:40:14.586Z,32.23
2018-05-17T00:42:43.318Z,25.27
2018-05-17T00:45:11.374Z,30.27
2018-05-17T00:47:39.091Z,33.87
2018-05-17T00:50:07.265Z,32.33
2018-05-17T00:52:35.883Z,31.60
2018-05-17T00:55:03.426Z,25.23
2018-05-17T00:57:31.228Z,27.87
2018-05-17T00:59:59.035Z,25.53
2018-05-17T01:02:27.421Z,41.77
2018-05-17T01:04:55.506Z,25.43
2018-05-17T01:07:23.458Z,20.10
2018-05-17T01:09:51.453Z,25.63
2018-05-17T01:12:19.475Z,26.97
2018-05-17T01:14:47.262Z,21.00
2018-05-17T01:17:15.895Z,20.33
2018-05-17T01:19:45.159Z,17.67
2018-05-17T01:22:13.309Z,18.57
2018-05-17T01:24:41.265Z,18.00
2018-05-17T01:27:09.826Z,16.17
2018-05-17T01:29:37.594Z,16.00
2018-05-17T01:32:05.787Z,16.53
2018-05-17T01:34:33.443Z,22.30
2018-05-17T01:37:02.693Z,15.93
2018-05-17T01:39:30.356Z,13.67
2018-05-17T01:41:58.968Z,13.93
2018-05-17T01:44:26.680Z,16.80
2018-05-17T01:46:54.712Z,14.90
2018-05-17T01:49:22.462Z,13.60
2018-05-17T01:51:50.387Z,14.67
2018-05-17T01:54:18.156Z,18.93
2018-05-17T01:56:46.076Z,15.07
2018-05-17T01:59:14.502Z,13.90
2018-05-17T02:01:42.439Z,14.67
2018-05-17T02:04:10.343Z,13.90
2018-05-17T02:06:39.539Z,13.23
2018-05-17T02:09:08.582Z,14.50
2018-05-17T02:11:36.703Z,12.77
2018-05-17T02:14:05.260Z,14.57
2018-05-17T02:16:32.991Z,13.30
2018-05-17T02:19:00.869Z,12.60
2018-05-17T02:21:29.990Z,12.40
2018-05-17T02:23:58.006Z,13.27
2018-05-17T02:26:25.728Z,13.40
2018-05-17T02:28:54.031Z,13.40
2018-05-17T02:31:22.075Z,13.10
2018-05-17T02:33:49.885Z,13.73
2018-05-17T02:36:17.801Z,12.43
2018-05-17T02:38:45.832Z,12.90
2018-05-17T02:41:14.411Z,11.60
2018-05-17T02:43:42.126Z,11.17
2018-05-17T02:46:10.198Z,12.00
2018-05-17T02:48:37.969Z,11.57
2018-05-17T02:51:06.757Z,11.00
2018-05-17T02:53:34.679Z,10.77
2018-05-17T02:56:02.786Z,11.10
2018-05-17T02:58:31.040Z,10.17
2018-05-17T03:00:59.538Z,10.70
2018-05-17T03:03:28.140Z,10.87
2018-05-17T03:05:56.118Z,10.47
2018-05-17T03:08:23.811Z,10.20
2018-05-17T03:10:52.657Z,9.27
2018-05-17T03:13:20.603Z,10.57
2018-05-17T03:15:48.343Z,9.73
2018-05-17T03:18:16.208Z,13.37
2018-05-17T03:20:44.311Z,9.87
2018-05-17T03:23:12.337Z,9.73
2018-05-17T03:25:40.298Z,10.57
2018-05-17T03:28:08.105Z,11.37
2018-05-17T03:30:35.908Z,9.63
2018-05-17T03:33:03.672Z,9.57
2018-05-17T03:35:33.193Z,10.43
2018-05-17T03:38:01.070Z,12.40
2018-05-17T03:40:28.744Z,10.73
2018-05-17T03:42:57.260Z,9.87
2018-05-17T03:45:25.034Z,10.97
2018-05-17T03:47:52.900Z,10.80
2018-05-17T03:50:21.511Z,14.50
2018-05-17T03:52:49.370Z,12.37
2018-05-17T03:55:17.370Z,11.23
2018-05-17T03:57:46.632Z,11.57
2018-05-17T04:00:15.544Z,12.10
2018-05-17T04:02:44.639Z,11.27
2018-05-17T04:05:12.475Z,11.10
2018-05-17T04:07:40.538Z,9.80
2018-05-17T04:10:08.340Z,11.53
2018-05-17T04:12:36.181Z,10.93
2018-05-17T04:15:03.958Z,10.30
2018-05-17T04:17:31.673Z,10.97
2018-05-17T04:19:59.513Z,10.03
2018-05-17T04:22:27.292Z,11.53
2018-05-17T04:24:55.638Z,9.93
2018-05-17T04:27:23.277Z,12.40
2018-05-17T04:29:51.041Z,11.03
2018-05-17T04:32:18.728Z,11.23
2018-05-17T04:34:47.209Z,9.20
2018-05-17T04:37:15.690Z,10.03
2018-05-17T04:39:43.400Z,11.33
2018-05-17T04:42:11.367Z,9.73
2018-05-17T04:44:39.419Z,9.47
2018-05-17T04:47:07.344Z,10.60
2018-05-17T04:49:35.121Z,11.27
2018-05-17T04:52:02.950Z,10.50
2018-05-17T04:54:30.693Z,9.67
2018-05-17T04:56:58.482Z,10.23
2018-05-17T04:59:26.084Z,10.30
2018-05-17T05:01:53.838Z,9.30
2018-05-17T05:04:23.387Z,8.10
2018-05-17T05:06:51.031Z,9.33
2018-05-17T05:09:19.147Z,9.33
2018-05-17T05:11:47.023Z,9.77
2018-05-17T05:14:16.220Z,9.93
2018-05-17T05:16:43.954Z,9.77
2018-05-17T05:19:12.974Z,9.77
2018-05-17T05:21:40.698Z,8.97
2018-05-17T05:24:09.373Z,8.53
2018-05-17T05:26:37.185Z,11.23
2018-05-17T05:29:05.685Z,9.80
2018-05-17T05:31:34.613Z,9.77
2018-05-17T05:34:03.421Z,10.40
2018-05-17T05:36:32.168Z,9.60
2018-05-17T05:38:59.979Z,9.07
2018-05-17T05:41:28.732Z,9.43
2018-05-17T05:43:56.629Z,8.70
2018-05-17T05:46:24.518Z,10.40
2018-05-17T05:48:52.933Z,8.80
2018-05-17T05:51:20.663Z,10.10
2018-05-17T05:53:48.451Z,10.17
2018-05-17T05:56:16.225Z,9.10
2018-05-17T05:58:44.139Z,8.90
2018-05-17T06:01:11.947Z,9.47
2018-05-17T06:03:39.621Z,8.07
2018-05-17T06:06:08.186Z,9.10
2018-05-17T06:08:36.062Z,9.87
2018-05-17T06:11:03.616Z,9.83
2018-05-17T06:13:31.105Z,9.10
2018-05-17T06:15:58.629Z,8.63
2018-05-17T06:18:26.269Z,10.43
2018-05-17T06:20:53.960Z,9.27
2018-05-17T06:23:21.632Z,9.90
2018-05-17T06:25:49.442Z,10.20
2018-05-17T06:28:17.449Z,9.67
2018-05-17T06:30:45.407Z,9.30
2018-05-17T06:33:13.259Z,10.17
2018-05-17T06:35:41.717Z,11.17
2018-05-17T06:38:10.047Z,9.27
2018-05-17T06:40:38.522Z,8.60
2018-05-17T06:43:06.413Z,9.10
2018-05-17T06:45:34.097Z,8.47
2018-05-17T06:48:01.846Z,8.77
2018-05-17T06:50:30.032Z,8.97
2018-05-17T06:52:57.847Z,10.00
2018-05-17T06:55:25.602Z,9.07
2018-05-17T06:57:53.363Z,8.73
2018-05-17T07:00:21.538Z,9.33
2018-05-17T07:02:49.517Z,10.40
2018-05-17T07:05:17.500Z,9.00
2018-05-17T07:07:46.475Z,10.07
2018-05-17T07:10:14.122Z,9.90
2018-05-17T07:12:41.966Z,10.43
2018-05-17T07:15:09.620Z,9.30
2018-05-17T07:17:37.740Z,10.33
2018-05-17T07:20:06.565Z,9.00
2018-05-17T07:22:35.170Z,9.63
2018-05-17T07:25:04.128Z,10.23
2018-05-17T07:27:31.940Z,10.70
2018-05-17T07:29:59.763Z,9.10
2018-05-17T07:32:28.270Z,9.13
2018-05-17T07:34:56.834Z,8.57
2018-05-17T07:37:25.532Z,9.50
2018-05-17T07:39:53.067Z,10.27
2018-05-17T07:42:21.005Z,10.77
2018-05-17T07:44:48.842Z,9.43
2018-05-17T07:47:16.463Z,9.63
2018-05-17T07:49:44.510Z,8.70
2018-05-17T07:52:12.219Z,9.00
2018-05-17T07:54:40.078Z,9.10
2018-05-17T07:57:08.195Z,10.60
2018-05-17T07:59:35.926Z,9.30
2018-05-17T08:02:03.946Z,9.60
2018-05-17T08:04:31.869Z,10.37
2018-05-17T08:06:59.588Z,9.87
2018-05-17T08:09:27.303Z,10.63
2018-05-17T08:11:55.040Z,9.60
2018-05-17T08:14:22.977Z,9.07
2018-05-17T08:16:50.746Z,9.97
2018-05-17T08:19:18.802Z,9.17
2018-05-17T08:21:46.349Z,9.97
2018-05-17T08:24:14.257Z,8.90
2018-05-17T08:26:42.186Z,9.20
2018-05-17T08:29:10.501Z,8.47
2018-05-17T08:31:38.211Z,8.73
2018-05-17T08:34:06.069Z,9.47
2018-05-17T08:36:34.121Z,9.37
2018-05-17T08:39:02.078Z,9.57
2018-05-17T08:41:29.815Z,9.43
2018-05-17T08:43:57.429Z,12.67
2018-05-17T08:46:25.117Z,9.30
2018-05-17T08:48:52.891Z,8.53
2018-05-17T08:51:20.991Z,10.03
2018-05-17T08:53:49.887Z,11.80
2018-05-17T08:56:17.787Z,8.70
2018-05-17T08:58:45.868Z,9.00
2018-05-17T09:01:13.621Z,9.77
2018-05-17T09:03:41.968Z,9.10
2018-05-17T09:06:10.082Z,9.93
2018-05-17T09:08:37.792Z,9.27
2018-05-17T09:11:05.473Z,9.10
2018-05-17T09:13:33.465Z,9.03
2018-05-17T09:16:01.363Z,10.73
2018-05-17T09:18:29.121Z,8.60
2018-05-17T09:20:56.764Z,8.50
2018-05-17T09:23:24.730Z,8.83
2018-05-17T09:25:53.185Z,8.70
2018-05-17T09:28:21.696Z,8.23
2018-05-17T09:30:49.581Z,9.67
2018-05-17T09:33:17.608Z,9.43
2018-05-17T09:35:46.222Z,11.83
2018-05-17T09:38:14.944Z,8.53
2018-05-17T09:40:42.608Z,9.30
2018-05-17T09:43:10.343Z,8.00
2018-05-17T09:45:38.253Z,8.53
2018-05-17T09:48:06.229Z,9.17
2018-05-17T09:50:34.302Z,8.20
2018-05-17T09:53:02.258Z,9.00
2018-05-17T09:55:29.981Z,8.97
2018-05-17T09:57:57.792Z,9.33
2018-05-17T10:00:25.473Z,8.90
2018-05-17T10:02:54.080Z,8.83
2018-05-17T10:05:22.536Z,9.30
2018-05-17T10:07:50.383Z,9.23
2018-05-17T10:10:18.144Z,8.63
2018-05-17T10:12:47.272Z,9.43
2018-05-17T10:15:15.096Z,8.17
2018-05-17T10:17:42.785Z,9.23
2018-05-17T10:20:10.551Z,8.90
2018-05-17T10:22:38.356Z,8.50
2018-05-17T10:25:06.826Z,10.43
2018-05-17T10:27:34.885Z,7.97
2018-05-17T10:30:02.873Z,9.60
2018-05-17T10:32:31.478Z,9.03
2018-05-17T10:34:59.104Z,8.67
2018-05-17T10:37:27.009Z,9.17
2018-05-17T10:39:56.207Z,9.37
2018-05-17T10:42:24.777Z,8.37
2018-05-17T10:44:52.634Z,9.70
2018-05-17T10:47:22.002Z,8.57
2018-05-17T10:49:49.669Z,8.77
2018-05-17T10:52:17.266Z,8.40
2018-05-17T10:54:45.743Z,8.80
2018-05-17T10:57:13.482Z,9.57
2018-05-17T10:59:41.950Z,9.77
2018-05-17T11:02:09.585Z,12.83
2018-05-17T11:04:37.439Z,12.93
2018-05-17T11:07:05.130Z,11.70
2018-05-17T11:09:32.949Z,9.83
2018-05-17T11:12:00.517Z,9.50
2018-05-17T11:14:28.167Z,10.03
2018-05-17T11:16:55.969Z,10.60
2018-05-17T11:19:24.002Z,15.07
2018-05-17T11:21:52.003Z,13.80
2018-05-17T11:24:19.877Z,12.43
2018-05-17T11:26:47.633Z,14.10
2018-05-17T11:29:15.541Z,14.07
2018-05-17T11:31:43.067Z,16.17
2018-05-17T11:34:11.289Z,15.37
2018-05-17T11:36:38.962Z,11.93
2018-05-17T11:39:06.743Z,11.07
2018-05-17T11:41:36.374Z,10.97
2018-05-17T11:44:04.131Z,10.33
2018-05-17T11:46:32.499Z,10.10
2018-05-17T11:49:00.381Z,9.07
2018-05-17T11:51:28.244Z,14.90
2018-05-17T11:53:56.249Z,9.67
2018-05-17T11:56:24.497Z,9.20
2018-05-17T11:58:52.193Z,9.33
2018-05-17T12:01:20.714Z,10.07
2018-05-17T12:03:48.845Z,10.33
2018-05-17T12:06:16.757Z,11.17
2018-05-17T12:08:44.855Z,9.50
2018-05-17T12:11:14.349Z,9.93
2018-05-17T12:13:42.746Z,11.87
2018-05-17T12:16:10.662Z,9.20
2018-05-17T12:18:38.497Z,10.03
2018-05-17T12:21:06.361Z,10.37
2018-05-17T12:23:34.016Z,12.43
2018-05-17T12:26:01.603Z,9.30
2018-05-17T12:28:29.288Z,9.40
2018-05-17T12:30:57.714Z,10.23
2018-05-17T12:33:25.729Z,10.27
2018-05-17T12:35:54.082Z,9.53
2018-05-17T12:38:22.746Z,8.93
2018-05-17T12:40:51.446Z,9.07
2018-05-17T12:43:19.370Z,10.00
2018-05-17T12:45:47.392Z,11.83
2018-05-17T12:48:15.648Z,9.47
2018-05-17T12:50:43.660Z,9.67
2018-05-17T12:53:11.358Z,8.73
2018-05-17T12:55:40.016Z,10.00
2018-05-17T12:58:07.800Z,11.93
2018-05-17T13:00:35.525Z,9.37
2018-05-17T13:03:03.321Z,9.63
2018-05-17T13:05:31.033Z,9.33
2018-05-17T13:07:59.503Z,9.50
2018-05-17T13:10:27.325Z,9.27
2018-05-17T13:12:55.029Z,10.47
2018-05-17T13:15:22.728Z,14.30
2018-05-17T13:17:50.458Z,9.37
2018-05-17T13:20:19.364Z,10.23
2018-05-17T13:22:47.847Z,10.57
2018-05-17T13:25:15.911Z,10.10
2018-05-17T13:27:44.938Z,10.30
2018-05-17T13:30:13.607Z,9.77
2018-05-17T13:32:41.701Z,10.43
2018-05-17T13:35:09.658Z,10.23
2018-05-17T13:37:38.397Z,9.60
2018-05-17T13:40:06.458Z,10.30
2018-05-17T13:42:34.407Z,9.77
2018-05-17T13:45:03.741Z,11.13
2018-05-17T13:47:31.791Z,10.33
2018-05-17T13:49:59.517Z,10.20
2018-05-17T13:52:27.335Z,11.70
2018-05-17T13:54:55.197Z,10.00
2018-05-17T13:57:22.969Z,10.03
2018-05-17T13:59:50.740Z,9.90
2018-05-17T14:02:18.549Z,12.67
2018-05-17T14:04:47.574Z,11.60
2018-05-17T14:07:15.632Z,10.27
2018-05-17T14:09:44.506Z,10.80
2018-05-17T14:12:13.048Z,12.57
2018-05-17T14:14:41.642Z,10.07
2018-05-17T14:17:10.337Z,11.20
2018-05-17T14:19:38.270Z,10.17
2018-05-17T14:22:07.685Z,11.23
2018-05-17T14:24:35.809Z,11.77
2018-05-17T14:27:03.595Z,10.53
2018-05-17T14:29:31.521Z,11.50
2018-05-17T14:32:00.037Z,10.50
2018-05-17T14:34:29.433Z,10.70
2018-05-17T14:36:57.252Z,11.47
2018-05-17T14:39:26.237Z,10.40
2018-05-17T14:41:53.856Z,12.23
2018-05-17T14:44:21.734Z,11.33
2018-05-17T14:46:49.458Z,12.70
2018-05-17T14:49:17.639Z,12.13
2018-05-17T14:51:45.484Z,10.20
2018-05-17T14:54:14.820Z,13.63
2018-05-17T14:56:42.763Z,13.57
2018-05-17T14:59:10.644Z,12.63
2018-05-17T15:01:38.447Z,17.17
2018-05-17T15:04:06.944Z,15.90
2018-05-17T15:06:34.807Z,15.90
2018-05-17T15:09:03.230Z,18.70
2018-05-17T15:11:31.865Z,20.73
2018-05-17T15:13:59.730Z,21.23
2018-05-17T15:16:27.622Z,21.83
2018-05-17T15:18:55.404Z,26.23
2018-05-17T15:21:23.667Z,25.10
2018-05-17T15:23:51.608Z,25.03
2018-05-17T15:26:20.551Z,27.20
2018-05-17T15:28:48.320Z,21.30
2018-05-17T15:31:15.980Z,27.63
2018-05-17T15:33:44.104Z,24.33
2018-05-17T15:36:11.918Z,30.73
2018-05-17T15:38:40.428Z,20.67
2018-05-17T15:41:08.121Z,25.70
2018-05-17T15:43:36.080Z,23.40
2018-05-17T15:46:03.829Z,26.57
2018-05-17T15:48:31.840Z,25.90
2018-05-17T15:50:59.647Z,22.93
2018-05-17T15:53:28.366Z,26.26
2018-05-17T15:55:56.492Z,23.30
2018-05-17T15:58:24.471Z,27.93
2018-05-17T16:00:53.177Z,22.43
2018-05-17T16:03:22.087Z,22.73
2018-05-17T16:05:50.870Z,20.63
2018-05-17T16:08:18.623Z,22.20
2018-05-17T16:10:46.891Z,23.73
2018-05-17T16:13:14.911Z,28.37
2018-05-17T16:15:42.792Z,27.00
2018-05-17T16:18:11.005Z,27.07
2018-05-17T16:20:39.604Z,22.95
2018-05-17T16:23:07.550Z,24.77
2018-05-17T16:25:35.341Z,22.43
2018-05-17T16:28:03.207Z,24.47
2018-05-17T16:30:30.847Z,22.80
2018-05-17T16:33:00.112Z,20.63
2018-05-17T16:35:33.759Z,26.48
2018-05-17T16:38:02.636Z,28.70
2018-05-17T16:40:31.877Z,23.07
2018-05-17T16:42:59.935Z,25.80
2018-05-17T16:45:28.625Z,25.17
2018-05-17T16:47:57.146Z,23.08
2018-05-17T16:50:25.136Z,20.92
2018-05-17T16:52:53.937Z,21.67
2018-05-17T16:55:21.979Z,25.80
2018-05-17T16:57:49.876Z,25.40
2018-05-17T17:00:17.654Z,22.70
2018-05-17T17:02:46.103Z,28.87
2018-05-17T17:05:13.879Z,21.83
2018-05-17T17:07:41.677Z,22.40
2018-05-17T17:10:09.799Z,24.03
2018-05-17T17:12:38.439Z,23.80
2018-05-17T17:15:06.320Z,23.93
2018-05-17T17:17:34.148Z,24.23
2018-05-17T17:20:01.933Z,23.03
2018-05-17T17:22:29.755Z,25.30
2018-05-17T17:24:58.776Z,25.97
2018-05-17T17:27:26.575Z,22.10
2018-05-17T17:29:54.710Z,21.50
2018-05-17T17:32:22.391Z,22.97
2018-05-17T17:34:50.807Z,19.73
2018-05-17T17:37:18.680Z,21.07
2018-05-17T17:39:50.580Z,21.07
2018-05-17T17:42:18.631Z,20.30
2018-05-17T17:44:47.088Z,20.13
2018-05-17T17:47:14.791Z,24.57
2018-05-17T17:49:43.323Z,18.47
2018-05-17T17:52:11.829Z,23.77
2018-05-17T17:54:40.109Z,22.07
2018-05-17T17:57:07.927Z,18.97
2018-05-17T17:59:35.700Z,25.20
2018-05-17T18:02:03.470Z,18.20
2018-05-17T18:04:31.364Z,21.40
2018-05-17T18:06:59.342Z,18.63
2018-05-17T18:09:27.945Z,18.20
2018-05-17T18:11:55.754Z,20.40
2018-05-17T18:14:24.923Z,20.90
2018-05-17T18:33:12.750Z,23.50
2018-05-17T18:35:40.431Z,18.73
2018-05-17T18:38:08.040Z,17.07
2018-05-17T18:40:35.973Z,17.00
2018-05-17T18:43:03.864Z,17.70
2018-05-17T18:45:31.605Z,18.33
2018-05-17T18:47:59.513Z,17.27
2018-05-17T18:50:27.313Z,18.53
2018-05-17T18:52:56.273Z,18.27
2018-05-17T18:55:24.800Z,17.83
2018-05-17T18:57:53.122Z,18.63
2018-05-17T19:00:20.848Z,19.40
2018-05-17T19:02:49.123Z,18.10
2018-05-17T19:05:17.981Z,17.40
2018-05-17T19:07:45.799Z,19.60
2018-05-17T19:10:13.657Z,18.60
2018-05-17T19:12:41.510Z,19.63
2018-05-17T19:15:09.387Z,20.47
2018-05-17T19:17:37.396Z,16.70
2018-05-17T19:20:06.102Z,16.13
2018-05-17T19:22:34.655Z,17.13
2018-05-17T19:25:03.474Z,17.27
2018-05-17T19:27:31.985Z,16.43
2018-05-17T19:29:59.722Z,18.40
2018-05-17T19:32:27.627Z,15.93
2018-05-17T19:34:55.423Z,18.53
2018-05-17T19:37:23.149Z,16.50
2018-05-17T19:39:50.927Z,15.50
2018-05-17T19:42:18.839Z,15.70
2018-05-17T19:44:47.013Z,13.80
2018-05-17T19:47:15.744Z,15.82
2018-05-17T19:49:44.592Z,16.57
2018-05-17T19:52:13.392Z,15.33
2018-05-17T19:54:41.210Z,15.17
2018-05-17T19:57:09.720Z,16.53
2018-05-17T19:59:37.741Z,15.40
2018-05-17T20:02:05.970Z,14.37
2018-05-17T20:04:33.655Z,16.43
2018-05-17T20:07:01.371Z,14.87
2018-05-17T20:09:29.253Z,13.13
2018-05-17T20:11:57.395Z,13.20
2018-05-17T20:14:25.331Z,14.57
2018-05-17T20:16:53.065Z,14.13
2018-05-17T20:19:20.954Z,14.23
2018-05-17T20:21:52.360Z,15.33
2018-05-17T20:24:25.073Z,14.20
2018-05-17T20:27:01.140Z,13.98
2018-05-17T20:29:29.703Z,16.87
2018-05-17T20:31:58.915Z,13.63
2018-05-17T20:34:27.960Z,13.70
2018-05-17T20:36:56.259Z,13.20
2018-05-17T20:39:25.491Z,13.57
2018-05-17T20:41:56.571Z,14.30
2018-05-17T20:44:28.553Z,12.07
2018-05-17T20:46:56.411Z,13.30
2018-05-17T20:49:25.721Z,12.30
2018-05-17T20:51:55.049Z,14.20
2018-05-17T20:54:22.698Z,13.33
2018-05-17T20:56:51.387Z,13.17
2018-05-17T20:59:20.377Z,13.77
2018-05-17T21:01:48.347Z,12.50
2018-05-17T21:04:16.130Z,12.80
2018-05-17T21:06:43.715Z,12.10
2018-05-17T21:09:12.305Z,13.10
2018-05-17T21:11:40.219Z,12.57
2018-05-17T21:14:09.121Z,12.10
2018-05-17T21:16:37.347Z,12.23
2018-05-17T21:19:05.154Z,13.53
2018-05-17T21:21:33.050Z,11.23
2018-05-17T21:24:00.882Z,12.87
2018-05-17T21:26:29.928Z,12.63
2018-05-17T21:28:57.903Z,11.63
2018-05-17T21:31:25.881Z,11.23
2018-05-17T21:33:55.149Z,11.03
2018-05-17T21:36:23.817Z,11.73
2018-05-17T21:38:51.713Z,11.53
2018-05-17T21:41:20.479Z,11.30
2018-05-17T21:43:48.586Z,11.40
2018-05-17T21:46:16.276Z,12.50
2018-05-17T21:48:45.081Z,11.27
2018-05-17T21:51:12.835Z,15.67
2018-05-17T21:53:40.679Z,10.40
2018-05-17T21:56:08.670Z,12.50
2018-05-17T21:58:37.060Z,11.87
2018-05-17T22:01:04.845Z,12.07
2018-05-17T22:03:32.718Z,10.27
2018-05-17T22:06:00.374Z,16.10
2018-05-17T22:08:28.485Z,16.77
2018-05-17T22:10:56.330Z,16.10
2018-05-17T22:13:25.423Z,17.53
2018-05-17T22:15:54.134Z,12.70
2018-05-17T22:18:21.990Z,12.00
2018-05-17T22:20:49.903Z,14.40
2018-05-17T22:23:18.389Z,12.27
2018-05-17T22:25:48.154Z,10.87
2018-05-17T22:28:16.056Z,10.97
2018-05-17T22:30:44.141Z,11.90
2018-05-17T22:33:11.950Z,10.73
2018-05-17T22:35:39.745Z,12.07
2018-05-17T22:38:07.588Z,10.03
2018-05-17T22:40:35.386Z,10.77
2018-05-17T22:43:04.954Z,11.10
2018-05-17T22:45:33.552Z,15.50
2018-05-17T22:48:01.602Z,12.33
2018-05-17T22:50:29.630Z,12.73
2018-05-17T22:52:58.050Z,10.40
2018-05-17T22:55:26.568Z,11.43
2018-05-17T22:57:54.389Z,11.65
2018-05-17T23:00:22.301Z,9.97
2018-05-17T23:02:50.315Z,11.77
2018-05-17T23:05:18.718Z,9.77
2018-05-17T23:07:47.669Z,13.37
2018-05-17T23:10:15.535Z,10.50
2018-05-17T23:12:43.356Z,11.30
2018-05-17T23:15:11.410Z,13.30
2018-05-17T23:17:39.992Z,12.43
2018-05-17T23:20:09.276Z,10.00
2018-05-17T23:22:37.153Z,11.20
2018-05-17T23:25:05.003Z,9.60
2018-05-17T23:27:32.667Z,10.80
2018-05-17T23:30:00.341Z,9.63
2018-05-17T23:32:28.538Z,11.23
2018-05-17T23:34:56.454Z,10.57
2018-05-17T23:37:24.060Z,14.30
2018-05-17T23:39:51.777Z,10.07
2018-05-17T23:42:19.642Z,10.90
2018-05-17T23:44:47.357Z,13.37
2018-05-17T23:47:15.148Z,14.60
2018-05-17T23:49:47.521Z,11.17
2018-05-17T23:52:15.329Z,12.07
2018-05-17T23:54:43.186Z,13.17
2018-05-17T23:57:12.354Z,11.20
2018-05-17T23:59:41.143Z,10.83
